createdAt,value
2022-10-01T00:03:34.049Z,54.68
2022-10-01T00:13:41.057Z,54.66
2022-10-01T00:23:47.532Z,55.14
2022-10-01T00:33:54.568Z,54.52
2022-10-01T00:44:01.868Z,54.59
2022-10-01T00:54:08.808Z,54.72
2022-10-01T01:04:15.435Z,54.70
2022-10-01T01:14:23.456Z,54.77
2022-10-01T01:24:30.359Z,54.65
2022-10-01T01:34:37.221Z,54.91
2022-10-01T01:44:44.523Z,54.89
2022-10-01T01:54:51.487Z,54.77
2022-10-01T02:04:57.805Z,54.86
2022-10-01T02:15:04.817Z,55.05
2022-10-01T02:25:11.336Z,55.10
2022-10-01T02:35:18.118Z,55.03
2022-10-01T02:45:25.468Z,54.87
2022-10-01T02:56:56.024Z,55.01
2022-10-01T03:07:02.467Z,55.15
2022-10-01T03:17:09.780Z,55.29
2022-10-01T03:27:16.713Z,55.43
2022-10-01T03:37:23.635Z,55.39
2022-10-01T03:47:30.772Z,55.46
2022-10-01T03:57:37.570Z,55.45
2022-10-01T04:07:44.811Z,55.26
2022-10-01T04:17:51.868Z,55.44
2022-10-01T04:27:59.013Z,55.18
2022-10-01T04:38:06.206Z,55.35
2022-10-01T04:48:13.160Z,55.50
2022-10-01T04:58:19.873Z,55.40
2022-10-01T05:08:26.375Z,55.51
2022-10-01T05:18:33.409Z,55.56
2022-10-01T05:28:40.518Z,55.47
2022-10-01T05:38:47.789Z,55.53
2022-10-01T05:48:53.787Z,55.21
2022-10-01T05:59:00.741Z,55.53
2022-10-01T06:09:07.524Z,55.55
2022-10-01T06:19:13.990Z,55.53
2022-10-01T06:29:20.990Z,55.73
2022-10-01T06:39:28.544Z,55.63
2022-10-01T06:49:36.154Z,55.68
2022-10-01T06:59:43.263Z,55.85
2022-10-01T07:09:49.309Z,55.98
2022-10-01T07:19:56.038Z,55.96
2022-10-01T07:30:02.084Z,55.99
2022-10-01T07:40:08.787Z,55.89
2022-10-01T07:50:14.854Z,56.10
2022-10-01T08:00:21.777Z,55.97
2022-10-01T08:10:28.710Z,56.77
2022-10-01T08:20:34.998Z,56.71
2022-10-01T08:30:41.130Z,56.53
2022-10-01T08:40:47.339Z,56.19
2022-10-01T08:50:53.637Z,56.24
2022-10-01T09:01:00.248Z,56.08
2022-10-01T09:11:06.752Z,55.78
2022-10-01T09:21:13.175Z,55.77
2022-10-01T09:31:19.808Z,55.77
2022-10-01T09:41:26.606Z,55.66
2022-10-01T09:51:34.901Z,55.88
2022-10-01T10:01:42.936Z,55.49
2022-10-01T10:11:49.670Z,55.62
2022-10-01T10:21:56.030Z,55.35
2022-10-01T10:32:02.910Z,55.54
2022-10-01T10:42:09.944Z,55.62
2022-10-01T10:52:17.334Z,55.73
2022-10-01T11:02:24.093Z,55.55
2022-10-01T11:12:30.818Z,55.65
2022-10-01T11:22:37.752Z,55.62
2022-10-01T11:32:43.946Z,55.24
2022-10-01T11:42:50.652Z,55.65
2022-10-01T11:52:57.154Z,55.25
2022-10-01T12:03:03.391Z,55.74
2022-10-01T12:13:10.057Z,55.00
2022-10-01T12:23:16.977Z,52.47
2022-10-01T12:33:22.958Z,52.07
2022-10-01T12:43:29.369Z,53.12
2022-10-01T12:53:36.227Z,53.62
2022-10-01T13:03:42.691Z,53.56
2022-10-01T13:13:49.140Z,53.72
2022-10-01T13:23:58.064Z,53.66
2022-10-01T13:34:04.602Z,53.84
2022-10-01T13:44:10.955Z,53.82
2022-10-01T13:54:18.816Z,53.84
2022-10-01T14:04:25.205Z,54.02
2022-10-01T14:14:31.764Z,53.90
2022-10-01T14:24:38.387Z,54.06
2022-10-01T14:34:45.485Z,54.19
2022-10-01T14:44:51.604Z,54.34
2022-10-01T14:54:58.090Z,54.83
2022-10-01T15:05:04.483Z,53.92
2022-10-01T15:15:10.695Z,54.10
2022-10-01T15:25:17.332Z,54.00
2022-10-01T15:35:23.644Z,54.09
2022-10-01T15:45:30.219Z,54.61
2022-10-01T15:55:36.377Z,55.47
2022-10-01T16:05:42.640Z,56.64
2022-10-01T16:15:49.145Z,57.16
2022-10-01T16:25:55.318Z,58.01
2022-10-01T16:36:01.454Z,57.83
2022-10-01T16:46:07.539Z,58.07
2022-10-01T16:56:13.737Z,58.54
2022-10-01T17:06:19.910Z,58.66
2022-10-01T17:16:26.389Z,57.85
2022-10-01T17:26:33.005Z,58.05
2022-10-01T17:36:41.001Z,58.51
2022-10-01T17:46:47.169Z,58.24
2022-10-01T17:56:53.762Z,58.24
2022-10-01T18:07:00.034Z,57.90
2022-10-01T18:17:06.274Z,57.92
2022-10-01T18:27:12.386Z,58.02
2022-10-01T18:37:19.215Z,57.81
2022-10-01T18:47:25.616Z,57.80
2022-10-01T18:57:31.911Z,57.73
2022-10-01T19:07:38.062Z,57.76
2022-10-01T19:17:44.448Z,57.69
2022-10-01T19:27:51.111Z,57.58
2022-10-01T19:37:57.682Z,57.51
2022-10-01T19:48:03.783Z,57.70
2022-10-01T19:58:09.769Z,57.63
2022-10-01T20:08:16.366Z,57.81
2022-10-01T20:18:27.652Z,57.49
2022-10-01T20:28:33.696Z,57.70
2022-10-01T20:38:40.197Z,57.70
2022-10-01T20:48:46.645Z,57.65
2022-10-01T20:58:52.724Z,57.50
2022-10-01T21:08:58.451Z,57.45
2022-10-01T21:19:04.648Z,57.49
2022-10-01T21:29:11.294Z,57.71
2022-10-01T21:39:17.581Z,57.73
2022-10-01T21:49:24.012Z,57.51
2022-10-01T21:59:30.367Z,57.31
2022-10-01T22:09:36.348Z,57.33
2022-10-01T22:19:43.569Z,56.95
2022-10-01T22:29:50.151Z,56.86
2022-10-01T22:39:56.163Z,56.72
2022-10-01T22:50:02.304Z,56.60
2022-10-01T23:00:08.939Z,56.68
2022-10-01T23:10:15.098Z,56.85
2022-10-01T23:20:21.352Z,56.58
2022-10-01T23:30:27.558Z,56.47
2022-10-01T23:40:33.899Z,56.45
2022-10-01T23:50:40.320Z,56.58
